createdAt,value
2019-03-22T13:10:20.914Z,28.65
2019-03-22T13:15:24.838Z,27.77
2019-03-22T13:20:28.788Z,29.23
2019-03-22T13:25:32.779Z,29.00
2019-03-22T13:30:37.148Z,28.05
2019-03-22T13:35:41.082Z,28.95
2019-03-22T13:40:45.024Z,28.65
2019-03-22T13:45:49.029Z,27.93
2019-03-22T13:50:53.040Z,26.85
2019-03-22T13:55:57.410Z,25.48
2019-03-22T14:01:01.544Z,25.25
2019-03-22T14:06:06.419Z,26.75
2019-03-22T14:11:12.384Z,25.05
2019-03-22T14:16:17.196Z,24.80
2019-03-22T14:21:22.014Z,25.23
2019-03-22T14:26:26.908Z,25.60
2019-03-22T14:31:31.636Z,26.77
2019-03-22T14:36:36.399Z,24.15
2019-03-22T14:41:41.092Z,25.05
2019-03-22T14:46:45.851Z,22.35
2019-03-22T14:51:50.579Z,24.02
2019-03-22T14:56:55.296Z,24.30
2019-03-22T15:02:00.108Z,23.45
2019-03-22T15:07:04.231Z,25.05
2019-03-22T15:12:08.223Z,25.75
2019-03-22T15:17:24.487Z,25.43
2019-03-22T15:23:07.081Z,25.08
2019-03-22T15:28:29.373Z,25.32
2019-03-22T15:33:57.974Z,25.80
2019-03-22T15:39:27.744Z,23.95
2019-03-22T15:44:31.864Z,27.70
2019-03-22T15:49:37.981Z,27.73
2019-03-22T15:54:42.721Z,26.25
2019-03-22T15:59:47.550Z,28.30
2019-03-22T16:04:51.517Z,29.45
2019-03-22T16:09:56.338Z,30.30
2019-03-22T16:15:01.125Z,31.75
2019-03-22T16:20:07.146Z,32.50
2019-03-22T16:25:12.867Z,31.45
2019-03-22T16:30:19.128Z,32.25
2019-03-22T16:35:23.896Z,31.75
2019-03-22T16:40:28.768Z,32.13
2019-03-22T16:45:38.303Z,33.15
2019-03-22T16:50:43.051Z,33.60
2019-03-22T16:55:47.801Z,32.93
2019-03-22T17:00:52.544Z,34.38
2019-03-22T17:05:57.330Z,35.80
2019-03-22T17:11:02.115Z,37.42
2019-03-22T17:16:06.957Z,39.38
2019-03-22T17:21:11.859Z,39.65
2019-03-22T17:26:16.583Z,40.03
2019-03-22T17:31:21.321Z,44.08
2019-03-22T17:36:26.127Z,42.38
2019-03-22T17:41:30.853Z,43.13
2019-03-22T17:46:35.660Z,44.38
2019-03-22T17:51:40.398Z,47.27
2019-03-22T17:56:45.229Z,43.65
2019-03-22T18:01:50.131Z,45.80
2019-03-22T18:06:54.893Z,48.35
2019-03-22T18:11:59.719Z,45.98
2019-03-22T18:17:04.529Z,46.33
2019-03-22T18:22:09.392Z,47.10
2019-03-22T18:27:14.219Z,45.78
2019-03-22T18:32:18.991Z,46.33
2019-03-22T18:37:23.879Z,46.02
2019-03-22T18:42:28.703Z,45.43
2019-03-22T18:47:33.577Z,43.90
2019-03-22T18:52:38.387Z,43.73
2019-03-22T18:57:43.281Z,42.95
2019-03-22T19:02:48.116Z,42.75
2019-03-22T19:07:52.887Z,42.95
2019-03-22T19:12:57.924Z,40.92
2019-03-22T19:18:02.775Z,41.40
2019-03-22T19:23:07.577Z,40.95
2019-03-22T19:28:12.364Z,39.20
2019-03-22T19:33:17.170Z,40.67
2019-03-22T19:38:21.977Z,42.90
2019-03-22T19:43:26.737Z,42.43
2019-03-22T19:48:31.583Z,46.60
2019-03-22T19:53:36.386Z,41.10
2019-03-22T19:58:41.230Z,42.25
2019-03-22T20:03:46.216Z,43.05
2019-03-22T20:08:51.166Z,41.50
2019-03-22T20:13:55.988Z,42.20
2019-03-22T20:19:00.741Z,42.23
2019-03-22T20:24:05.507Z,40.92
2019-03-22T20:29:10.324Z,39.58
2019-03-22T20:34:15.240Z,39.10
2019-03-22T20:39:19.287Z,39.58
2019-03-22T20:44:33.610Z,40.55
2019-03-22T20:49:30.569Z,41.90
2019-03-22T20:54:35.319Z,48.42
2019-03-22T20:59:40.164Z,44.83
2019-03-22T21:04:44.918Z,44.03
2019-03-22T21:09:49.803Z,43.17
2019-03-22T21:14:54.765Z,43.87
2019-03-22T21:19:59.592Z,42.90
2019-03-22T21:25:04.814Z,42.83
2019-03-22T21:30:09.914Z,45.33
2019-03-22T21:35:22.393Z,45.95
2019-03-22T21:40:21.161Z,44.85
2019-03-22T21:45:25.927Z,43.58
2019-03-22T21:50:30.770Z,41.30
2019-03-22T21:55:35.518Z,42.15
2019-03-22T22:00:40.309Z,39.70
2019-03-22T22:05:48.111Z,40.20
2019-03-22T22:10:59.376Z,35.70
2019-03-22T22:15:58.012Z,33.75
2019-03-22T22:21:02.758Z,33.45
2019-03-22T22:26:07.504Z,32.88
2019-03-22T22:31:12.222Z,33.13
2019-03-22T22:36:17.008Z,31.82
2019-03-22T22:41:21.851Z,30.92
2019-03-22T22:46:26.590Z,32.40
2019-03-22T22:51:31.293Z,31.05
2019-03-22T22:56:36.185Z,31.15
2019-03-22T23:01:40.897Z,31.68
2019-03-22T23:06:45.703Z,31.82
2019-03-22T23:11:50.507Z,31.65
2019-03-22T23:16:55.262Z,31.95
2019-03-22T23:22:00.090Z,31.93
2019-03-22T23:27:05.014Z,32.45
2019-03-22T23:32:09.763Z,31.52
2019-03-22T23:37:14.542Z,32.70
2019-03-22T23:42:19.381Z,31.82
2019-03-22T23:47:24.099Z,34.05
2019-03-22T23:52:28.947Z,32.58
2019-03-22T23:57:33.712Z,33.05
